sensor_id;sensor_type;location;lat;lon;timestamp;pressure;altitude;pressure_sealevel;temperature;humidity
56737;BME280;42618;51.226;4.910;2022-08-25T00:01:29;49400.06;;;-146.94;73.27
56737;BME280;42618;51.226;4.910;2022-08-25T00:03:58;49437.94;;;-146.94;73.80
56737;BME280;42618;51.226;4.910;2022-08-25T00:06:27;49457.88;;;-146.94;73.88
56737;BME280;42618;51.226;4.910;2022-08-25T00:08:54;49471.84;;;-146.94;74.07
56737;BME280;42618;51.226;4.910;2022-08-25T00:11:28;49435.97;;;-146.94;73.99
56737;BME280;42618;51.226;4.910;2022-08-25T00:13:58;49439.94;;;-146.94;74.38
56737;BME280;42618;51.226;4.910;2022-08-25T00:16:27;49449.91;;;-146.94;74.16
56737;BME280;42618;51.226;4.910;2022-08-25T00:18:58;49424.00;;;-146.94;74.29
56737;BME280;42618;51.226;4.910;2022-08-25T00:21:26;49471.84;;;-146.94;74.38
56737;BME280;42618;51.226;4.910;2022-08-25T00:23:53;49455.88;;;-146.94;74.36
56737;BME280;42618;51.226;4.910;2022-08-25T00:26:20;49431.97;;;-146.94;73.77
56737;BME280;42618;51.226;4.910;2022-08-25T00:28:47;49437.94;;;-146.94;73.63
56737;BME280;42618;51.226;4.910;2022-08-25T00:31:17;49467.84;;;-146.94;73.43
56737;BME280;42618;51.226;4.910;2022-08-25T00:33:47;49447.91;;;-146.94;73.13
56737;BME280;42618;51.226;4.910;2022-08-25T00:36:15;49463.88;;;-146.94;72.96
56737;BME280;42618;51.226;4.910;2022-08-25T00:38:44;49439.94;;;-146.94;72.68
56737;BME280;42618;51.226;4.910;2022-08-25T00:41:16;49431.97;;;-146.94;72.58
56737;BME280;42618;51.226;4.910;2022-08-25T00:43:49;49449.91;;;-146.94;72.32
56737;BME280;42618;51.226;4.910;2022-08-25T00:46:21;49445.94;;;-146.94;71.67
56737;BME280;42618;51.226;4.910;2022-08-25T00:48:55;49435.97;;;-146.94;71.48
56737;BME280;42618;51.226;4.910;2022-08-25T00:51:50;49447.91;;;-146.94;70.91
56737;BME280;42618;51.226;4.910;2022-08-25T00:54:26;49427.97;;;-146.94;70.77
56737;BME280;42618;51.226;4.910;2022-08-25T00:56:55;49422.00;;;-146.94;70.36
56737;BME280;42618;51.226;4.910;2022-08-25T00:59:24;49410.03;;;-146.94;70.46
56737;BME280;42618;51.226;4.910;2022-08-25T01:01:52;49455.88;;;-146.94;70.11
56737;BME280;42618;51.226;4.910;2022-08-25T01:04:20;49412.03;;;-146.94;70.17
56737;BME280;42618;51.226;4.910;2022-08-25T01:06:47;49433.97;;;-146.94;69.55
56737;BME280;42618;51.226;4.910;2022-08-25T01:09:14;49429.97;;;-146.94;69.89
56737;BME280;42618;51.226;4.910;2022-08-25T01:11:42;49416.03;;;-146.94;69.84
56737;BME280;42618;51.226;4.910;2022-08-25T01:14:12;49447.91;;;-146.94;69.53
56737;BME280;42618;51.226;4.910;2022-08-25T01:16:40;49463.88;;;-146.94;70.09
56737;BME280;42618;51.226;4.910;2022-08-25T01:19:11;49433.97;;;-146.94;69.73
56737;BME280;42618;51.226;4.910;2022-08-25T01:21:44;49481.81;;;-146.94;70.02
56737;BME280;42618;51.226;4.910;2022-08-25T01:24:27;49422.00;;;-146.94;69.98
56737;BME280;42618;51.226;4.910;2022-08-25T01:26:57;49459.88;;;-146.94;69.92
56737;BME280;42618;51.226;4.910;2022-08-25T01:29:24;49451.91;;;-146.94;69.72
56737;BME280;42618;51.226;4.910;2022-08-25T01:31:55;49431.97;;;-146.94;69.73
56737;BME280;42618;51.226;4.910;2022-08-25T01:34:29;49467.84;;;-146.94;69.47
56737;BME280;42618;51.226;4.910;2022-08-25T01:36:57;49473.84;;;-146.94;70.44
56737;BME280;42618;51.226;4.910;2022-08-25T01:39:26;49463.88;;;-146.94;70.29
56737;BME280;42618;51.226;4.910;2022-08-25T01:44:25;49427.97;;;-146.94;70.15
56737;BME280;42618;51.226;4.910;2022-08-25T01:46:52;49426.00;;;-146.94;70.84
56737;BME280;42618;51.226;4.910;2022-08-25T01:49:19;49447.91;;;-146.94;70.15
56737;BME280;42618;51.226;4.910;2022-08-25T01:51:51;49463.88;;;-146.94;70.20
56737;BME280;42618;51.226;4.910;2022-08-25T01:54:18;49453.91;;;-146.94;70.40
56737;BME280;42618;51.226;4.910;2022-08-25T01:56:45;49439.94;;;-146.94;70.46
56737;BME280;42618;51.226;4.910;2022-08-25T01:59:14;49445.94;;;-146.94;70.71
56737;BME280;42618;51.226;4.910;2022-08-25T02:01:49;49451.91;;;-146.94;70.49
56737;BME280;42618;51.226;4.910;2022-08-25T02:04:25;49431.97;;;-146.94;70.21
56737;BME280;42618;51.226;4.910;2022-08-25T02:06:52;49483.81;;;-146.94;69.97
56737;BME280;42618;51.226;4.910;2022-08-25T02:09:18;49455.88;;;-146.94;70.16
56737;BME280;42618;51.226;4.910;2022-08-25T02:11:46;49475.81;;;-146.94;70.81
56737;BME280;42618;51.226;4.910;2022-08-25T02:14:14;49483.81;;;-146.94;70.65
56737;BME280;42618;51.226;4.910;2022-08-25T02:16:44;49459.88;;;-146.94;70.87
56737;BME280;42618;51.226;4.910;2022-08-25T02:19:11;49441.94;;;-146.94;70.59
56737;BME280;42618;51.226;4.910;2022-08-25T02:21:38;49497.75;;;-146.94;70.54
56737;BME280;42618;51.226;4.910;2022-08-25T02:24:06;49461.88;;;-146.94;69.96
56737;BME280;42618;51.226;4.910;2022-08-25T02:26:32;49457.88;;;-146.94;70.17
56737;BME280;42618;51.226;4.910;2022-08-25T02:28:59;49437.94;;;-146.94;70.38
56737;BME280;42618;51.226;4.910;2022-08-25T02:31:27;49441.94;;;-146.94;69.76
56737;BME280;42618;51.226;4.910;2022-08-25T02:33:54;49477.81;;;-146.94;69.69
56737;BME280;42618;51.226;4.910;2022-08-25T02:36:22;49483.81;;;-146.94;70.80
56737;BME280;42618;51.226;4.910;2022-08-25T02:38:49;49439.94;;;-146.94;69.50
56737;BME280;42618;51.226;4.910;2022-08-25T02:41:18;49479.81;;;-146.94;69.23
56737;BME280;42618;51.226;4.910;2022-08-25T02:43:46;49467.84;;;-146.94;69.05
56737;BME280;42618;51.226;4.910;2022-08-25T02:46:15;49469.84;;;-146.94;70.68
56737;BME280;42618;51.226;4.910;2022-08-25T02:48:43;49479.81;;;-146.94;68.84
56737;BME280;42618;51.226;4.910;2022-08-25T02:51:11;49439.94;;;-146.94;67.81
56737;BME280;42618;51.226;4.910;2022-08-25T02:53:38;49463.88;;;-146.94;69.18
56737;BME280;42618;51.226;4.910;2022-08-25T02:56:07;49457.88;;;-146.94;68.52
56737;BME280;42618;51.226;4.910;2022-08-25T02:58:36;49471.84;;;-146.94;67.64
56737;BME280;42618;51.226;4.910;2022-08-25T03:01:03;49475.81;;;-146.94;66.92
56737;BME280;42618;51.226;4.910;2022-08-25T03:03:30;49431.97;;;-146.94;67.71
56737;BME280;42618;51.226;4.910;2022-08-25T03:06:03;49435.97;;;-146.94;68.07
56737;BME280;42618;51.226;4.910;2022-08-25T03:08:29;49489.78;;;-146.94;66.81
56737;BME280;42618;51.226;4.910;2022-08-25T03:10:56;49433.97;;;-146.94;66.99
56737;BME280;42618;51.226;4.910;2022-08-25T03:13:23;49447.91;;;-146.94;67.61
56737;BME280;42618;51.226;4.910;2022-08-25T03:15:49;49469.84;;;-146.94;66.83
56737;BME280;42618;51.226;4.910;2022-08-25T03:18:17;49481.81;;;-146.94;67.10
56737;BME280;42618;51.226;4.910;2022-08-25T03:20:43;49439.94;;;-146.94;66.74
56737;BME280;42618;51.226;4.910;2022-08-25T03:23:11;49493.75;;;-146.94;66.26
56737;BME280;42618;51.226;4.910;2022-08-25T03:25:39;49475.81;;;-146.94;66.41
56737;BME280;42618;51.226;4.910;2022-08-25T03:28:27;49455.88;;;-146.94;66.74
56737;BME280;42618;51.226;4.910;2022-08-25T03:30:58;49447.91;;;-146.94;66.28
56737;BME280;42618;51.226;4.910;2022-08-25T03:33:27;49503.72;;;-146.94;65.72
56737;BME280;42618;51.226;4.910;2022-08-25T03:35:54;49471.84;;;-146.94;66.05
56737;BME280;42618;51.226;4.910;2022-08-25T03:38:22;49473.84;;;-146.94;66.36
56737;BME280;42618;51.226;4.910;2022-08-25T03:40:51;49463.88;;;-146.94;67.08
56737;BME280;42618;51.226;4.910;2022-08-25T03:43:18;49479.81;;;-146.94;66.78
56737;BME280;42618;51.226;4.910;2022-08-25T03:45:46;49455.88;;;-146.94;66.71
56737;BME280;42618;51.226;4.910;2022-08-25T03:48:14;49453.91;;;-146.94;65.94
56737;BME280;42618;51.226;4.910;2022-08-25T03:50:46;49463.88;;;-146.94;66.54
56737;BME280;42618;51.226;4.910;2022-08-25T03:53:18;49469.84;;;-146.94;65.84
56737;BME280;42618;51.226;4.910;2022-08-25T03:55:46;49443.94;;;-146.94;67.84
56737;BME280;42618;51.226;4.910;2022-08-25T03:58:13;49475.81;;;-146.94;66.10
56737;BME280;42618;51.226;4.910;2022-08-25T04:00:40;49483.81;;;-146.94;66.68
56737;BME280;42618;51.226;4.910;2022-08-25T04:03:07;49461.88;;;-146.94;65.87
56737;BME280;42618;51.226;4.910;2022-08-25T04:05:34;49473.84;;;-146.94;66.70
56737;BME280;42618;51.226;4.910;2022-08-25T04:08:01;49489.78;;;-146.94;66.79
56737;BME280;42618;51.226;4.910;2022-08-25T04:10:29;49467.84;;;-146.94;65.99
56737;BME280;42618;51.226;4.910;2022-08-25T04:12:55;49491.78;;;-146.94;65.84
56737;BME280;42618;51.226;4.910;2022-08-25T04:15:22;49451.91;;;-146.94;67.03
56737;BME280;42618;51.226;4.910;2022-08-25T04:17:56;49427.97;;;-146.94;66.03
56737;BME280;42618;51.226;4.910;2022-08-25T04:20:25;49449.91;;;-146.94;66.10
56737;BME280;42618;51.226;4.910;2022-08-25T04:22:52;49473.84;;;-146.94;66.58
56737;BME280;42618;51.226;4.910;2022-08-25T04:25:18;49485.78;;;-146.94;65.55
56737;BME280;42618;51.226;4.910;2022-08-25T04:27:45;49483.81;;;-146.94;66.17
56737;BME280;42618;51.226;4.910;2022-08-25T04:30:12;49469.84;;;-146.94;67.64
56737;BME280;42618;51.226;4.910;2022-08-25T04:32:39;49465.84;;;-146.94;65.55
56737;BME280;42618;51.226;4.910;2022-08-25T04:35:06;49483.81;;;-146.94;66.00
56737;BME280;42618;51.226;4.910;2022-08-25T04:37:34;49443.94;;;-146.94;66.34
56737;BME280;42618;51.226;4.910;2022-08-25T04:40:00;49435.97;;;-146.94;66.08
56737;BME280;42618;51.226;4.910;2022-08-25T04:42:27;49487.78;;;-146.94;65.17
56737;BME280;42618;51.226;4.910;2022-08-25T04:44:54;49445.94;;;-146.94;66.43
56737;BME280;42618;51.226;4.910;2022-08-25T04:47:21;49467.84;;;-146.94;65.48
56737;BME280;42618;51.226;4.910;2022-08-25T04:49:48;49485.78;;;-146.94;64.97
56737;BME280;42618;51.226;4.910;2022-08-25T04:52:15;49461.88;;;-146.94;65.40
56737;BME280;42618;51.226;4.910;2022-08-25T04:54:42;49475.81;;;-146.94;65.34
56737;BME280;42618;51.226;4.910;2022-08-25T04:57:09;49463.88;;;-146.94;65.08
56737;BME280;42618;51.226;4.910;2022-08-25T04:59:36;49469.84;;;-146.94;65.02
56737;BME280;42618;51.226;4.910;2022-08-25T05:02:04;49491.78;;;-146.94;65.14
56737;BME280;42618;51.226;4.910;2022-08-25T05:04:34;49481.81;;;-146.94;65.17
56737;BME280;42618;51.226;4.910;2022-08-25T05:07:01;49459.88;;;-146.94;64.87
56737;BME280;42618;51.226;4.910;2022-08-25T05:09:28;49439.94;;;-146.94;65.13
56737;BME280;42618;51.226;4.910;2022-08-25T05:12:01;49461.88;;;-146.94;64.87
56737;BME280;42618;51.226;4.910;2022-08-25T05:14:29;49426.00;;;-146.94;64.68
56737;BME280;42618;51.226;4.910;2022-08-25T05:16:56;49424.00;;;-146.94;64.84
56737;BME280;42618;51.226;4.910;2022-08-25T05:19:23;49449.91;;;-146.94;64.40
56737;BME280;42618;51.226;4.910;2022-08-25T05:21:51;49463.88;;;-146.94;64.17
56737;BME280;42618;51.226;4.910;2022-08-25T05:24:19;49465.84;;;-146.94;63.97
56737;BME280;42618;51.226;4.910;2022-08-25T05:26:47;49477.81;;;-146.94;63.96
56737;BME280;42618;51.226;4.910;2022-08-25T05:29:14;49447.91;;;-146.94;64.25
56737;BME280;42618;51.226;4.910;2022-08-25T05:31:41;49455.88;;;-146.94;63.89
56737;BME280;42618;51.226;4.910;2022-08-25T05:34:15;49453.91;;;-146.94;63.32
56737;BME280;42618;51.226;4.910;2022-08-25T05:36:43;49475.81;;;-146.94;63.54
56737;BME280;42618;51.226;4.910;2022-08-25T05:39:10;49463.88;;;-146.94;63.27
56737;BME280;42618;51.226;4.910;2022-08-25T05:41:37;49473.84;;;-146.94;62.92
56737;BME280;42618;51.226;4.910;2022-08-25T05:44:04;49487.78;;;-146.94;62.91
56737;BME280;42618;51.226;4.910;2022-08-25T05:46:30;49473.84;;;-146.94;62.48
56737;BME280;42618;51.226;4.910;2022-08-25T05:48:57;49449.91;;;-146.94;62.17
56737;BME280;42618;51.226;4.910;2022-08-25T05:51:25;49465.84;;;-146.94;61.17
56737;BME280;42618;51.226;4.910;2022-08-25T05:53:52;49439.94;;;-146.94;61.11
56737;BME280;42618;51.226;4.910;2022-08-25T05:56:19;49457.88;;;-146.94;60.77
56737;BME280;42618;51.226;4.910;2022-08-25T05:58:46;49451.91;;;-146.94;60.13
56737;BME280;42618;51.226;4.910;2022-08-25T06:01:39;49437.94;;;-146.94;60.37
56737;BME280;42618;51.226;4.910;2022-08-25T06:04:24;49455.88;;;-146.94;59.33
56737;BME280;42618;51.226;4.910;2022-08-25T06:06:51;49451.91;;;-146.94;58.87
56737;BME280;42618;51.226;4.910;2022-08-25T06:09:21;49422.00;;;-146.94;59.60
56737;BME280;42618;51.226;4.910;2022-08-25T06:11:47;49431.97;;;-146.94;58.97
56737;BME280;42618;51.226;4.910;2022-08-25T06:14:20;49441.94;;;-146.94;58.44
56737;BME280;42618;51.226;4.910;2022-08-25T06:16:47;49422.00;;;-146.94;58.27
56737;BME280;42618;51.226;4.910;2022-08-25T06:19:17;49475.81;;;-146.94;57.90
56737;BME280;42618;51.226;4.910;2022-08-25T06:21:44;49449.91;;;-146.94;57.14
56737;BME280;42618;51.226;4.910;2022-08-25T06:24:10;49435.97;;;-146.94;56.88
56737;BME280;42618;51.226;4.910;2022-08-25T06:26:41;49459.88;;;-146.94;56.46
56737;BME280;42618;51.226;4.910;2022-08-25T06:29:09;49453.91;;;-146.94;56.42
56737;BME280;42618;51.226;4.910;2022-08-25T06:31:36;49435.97;;;-146.94;56.54
56737;BME280;42618;51.226;4.910;2022-08-25T06:34:02;49449.91;;;-146.94;56.28
56737;BME280;42618;51.226;4.910;2022-08-25T06:36:29;49429.97;;;-146.94;56.87
56737;BME280;42618;51.226;4.910;2022-08-25T06:38:56;49433.97;;;-146.94;56.18
56737;BME280;42618;51.226;4.910;2022-08-25T06:41:22;49475.81;;;-146.94;55.00
56737;BME280;42618;51.226;4.910;2022-08-25T06:44:03;49412.03;;;-146.94;54.77
56737;BME280;42618;51.226;4.910;2022-08-25T06:46:31;49422.00;;;-146.94;54.95
56737;BME280;42618;51.226;4.910;2022-08-25T06:49:05;49416.03;;;-146.94;55.50
56737;BME280;42618;51.226;4.910;2022-08-25T06:51:33;49455.88;;;-146.94;54.37
56737;BME280;42618;51.226;4.910;2022-08-25T06:54:03;49453.91;;;-146.94;54.14
56737;BME280;42618;51.226;4.910;2022-08-25T06:56:30;49439.94;;;-146.94;54.09
56737;BME280;42618;51.226;4.910;2022-08-25T06:58:57;49463.88;;;-146.94;54.04
56737;BME280;42618;51.226;4.910;2022-08-25T07:01:24;49416.03;;;-146.94;53.64
56737;BME280;42618;51.226;4.910;2022-08-25T07:03:57;49404.06;;;-146.94;53.54
56737;BME280;42618;51.226;4.910;2022-08-25T07:06:26;49427.97;;;-146.94;53.85
56737;BME280;42618;51.226;4.910;2022-08-25T07:08:54;49449.91;;;-146.94;53.71
56737;BME280;42618;51.226;4.910;2022-08-25T07:11:21;49408.06;;;-146.94;53.16
56737;BME280;42618;51.226;4.910;2022-08-25T07:13:48;49412.03;;;-146.94;52.70
56737;BME280;42618;51.226;4.910;2022-08-25T07:16:17;49426.00;;;-146.94;52.56
56737;BME280;42618;51.226;4.910;2022-08-25T07:18:45;49424.00;;;-146.94;52.63
56737;BME280;42618;51.226;4.910;2022-08-25T07:21:12;49398.09;;;-146.94;51.98
56737;BME280;42618;51.226;4.910;2022-08-25T07:23:40;49394.09;;;-146.94;50.65
56737;BME280;42618;51.226;4.910;2022-08-25T07:28:52;49394.09;;;-146.94;50.36
56737;BME280;42618;51.226;4.910;2022-08-25T07:31:19;49400.06;;;-146.94;50.35
56737;BME280;42618;51.226;4.910;2022-08-25T07:33:52;49390.09;;;-146.94;49.82
56737;BME280;42618;51.226;4.910;2022-08-25T07:36:38;49424.00;;;-146.94;48.99
56737;BME280;42618;51.226;4.910;2022-08-25T07:39:05;49382.13;;;-146.94;48.09
56737;BME280;42618;51.226;4.910;2022-08-25T07:41:36;49408.06;;;-146.94;47.31
56737;BME280;42618;51.226;4.910;2022-08-25T07:44:04;49416.03;;;-146.94;46.79
56737;BME280;42618;51.226;4.910;2022-08-25T07:46:31;49394.09;;;-146.94;47.11
56737;BME280;42618;51.226;4.910;2022-08-25T07:48:59;49412.03;;;-146.94;46.75
56737;BME280;42618;51.226;4.910;2022-08-25T07:51:25;49382.13;;;-146.94;47.04
56737;BME280;42618;51.226;4.910;2022-08-25T07:53:57;49356.22;;;-146.94;46.04
56737;BME280;42618;51.226;4.910;2022-08-25T07:56:26;49376.16;;;-146.94;45.98
56737;BME280;42618;51.226;4.910;2022-08-25T07:58:53;49356.22;;;-146.94;45.17
56737;BME280;42618;51.226;4.910;2022-08-25T08:01:22;49433.97;;;-146.94;45.00
56737;BME280;42618;51.226;4.910;2022-08-25T08:03:50;49374.16;;;-146.94;43.53
56737;BME280;42618;51.226;4.910;2022-08-25T08:06:22;49392.09;;;-146.94;44.18
56737;BME280;42618;51.226;4.910;2022-08-25T08:08:50;49380.13;;;-146.94;44.36
56737;BME280;42618;51.226;4.910;2022-08-25T08:11:28;49368.19;;;-146.94;43.88
56737;BME280;42618;51.226;4.910;2022-08-25T08:13:56;49364.19;;;-146.94;43.96
56737;BME280;42618;51.226;4.910;2022-08-25T08:16:26;49352.22;;;-146.94;43.50
56737;BME280;42618;51.226;4.910;2022-08-25T08:18:53;49336.28;;;-146.94;44.10
56737;BME280;42618;51.226;4.910;2022-08-25T08:21:23;49366.19;;;-146.94;43.24
56737;BME280;42618;51.226;4.910;2022-08-25T08:23:54;49392.09;;;-146.94;43.79
56737;BME280;42618;51.226;4.910;2022-08-25T08:26:25;49362.19;;;-146.94;43.63
56737;BME280;42618;51.226;4.910;2022-08-25T08:29:13;49364.19;;;-146.94;43.81
56737;BME280;42618;51.226;4.910;2022-08-25T08:31:40;49404.06;;;-146.94;43.44
56737;BME280;42618;51.226;4.910;2022-08-25T08:34:14;49380.13;;;-146.94;43.50
56737;BME280;42618;51.226;4.910;2022-08-25T08:36:41;49362.19;;;-146.94;42.87
56737;BME280;42618;51.226;4.910;2022-08-25T08:39:10;49378.16;;;-146.94;42.37
56737;BME280;42618;51.226;4.910;2022-08-25T08:53:24;49364.19;;;-146.94;40.94
56737;BME280;42618;51.226;4.910;2022-08-25T08:56:08;49386.13;;;-146.94;40.79
56737;BME280;42618;51.226;4.910;2022-08-25T08:58:55;49340.28;;;-146.94;41.73
56737;BME280;42618;51.226;4.910;2022-08-25T09:01:27;49352.22;;;-146.94;40.10
56737;BME280;42618;51.226;4.910;2022-08-25T09:06:54;49340.28;;;-146.94;39.44
56737;BME280;42618;51.226;4.910;2022-08-25T09:09:26;49356.22;;;-146.94;38.77
56737;BME280;42618;51.226;4.910;2022-08-25T09:12:31;49338.28;;;-146.94;38.62
56737;BME280;42618;51.226;4.910;2022-08-25T09:15:32;49342.28;;;-146.94;38.76
56737;BME280;42618;51.226;4.910;2022-08-25T09:18:45;49354.22;;;-146.94;39.02
56737;BME280;42618;51.226;4.910;2022-08-25T09:21:29;49314.34;;;-146.94;38.06
56737;BME280;42618;51.226;4.910;2022-08-25T09:26:44;49302.41;;;-146.94;38.02
56737;BME280;42618;51.226;4.910;2022-08-25T09:29:21;49336.28;;;-146.94;38.12
56737;BME280;42618;51.226;4.910;2022-08-25T09:31:52;49300.41;;;-146.94;37.07
56737;BME280;42618;51.226;4.910;2022-08-25T09:34:29;49308.38;;;-146.94;37.85
56737;BME280;42618;51.226;4.910;2022-08-25T09:36:58;49350.25;;;-146.94;36.64
56737;BME280;42618;51.226;4.910;2022-08-25T09:39:26;49312.38;;;-146.94;37.01
56737;BME280;42618;51.226;4.910;2022-08-25T09:41:58;49322.34;;;-146.94;36.97
56737;BME280;42618;51.226;4.910;2022-08-25T09:44:43;49330.31;;;-146.94;36.22
56737;BME280;42618;51.226;4.910;2022-08-25T09:49:43;49316.34;;;-146.94;35.91
56737;BME280;42618;51.226;4.910;2022-08-25T09:54:50;49328.31;;;-146.94;34.91
56737;BME280;42618;51.226;4.910;2022-08-25T09:57:43;49306.38;;;-146.94;34.49
56737;BME280;42618;51.226;4.910;2022-08-25T10:00:21;49292.44;;;-146.94;33.53
56737;BME280;42618;51.226;4.910;2022-08-25T10:03:18;49312.38;;;-146.94;33.84
56737;BME280;42618;51.226;4.910;2022-08-25T10:06:05;49308.38;;;-146.94;33.25
56737;BME280;42618;51.226;4.910;2022-08-25T10:14:14;49302.41;;;-146.94;32.20
56737;BME280;42618;51.226;4.910;2022-08-25T10:16:42;49336.28;;;-146.94;31.96
56737;BME280;42618;51.226;4.910;2022-08-25T10:19:22;49272.50;;;-146.94;31.33
56737;BME280;42618;51.226;4.910;2022-08-25T10:22:04;49296.41;;;-146.94;31.63
56737;BME280;42618;51.226;4.910;2022-08-25T10:24:32;49296.41;;;-146.94;31.52
56737;BME280;42618;51.226;4.910;2022-08-25T10:33:24;49278.47;;;-146.94;31.36
56737;BME280;42618;51.226;4.910;2022-08-25T10:36:09;49294.44;;;-146.94;30.81
56737;BME280;42618;51.226;4.910;2022-08-25T10:38:51;49302.41;;;-146.94;30.71
56737;BME280;42618;51.226;4.910;2022-08-25T10:47:31;49280.47;;;-146.94;30.74
56737;BME280;42618;51.226;4.910;2022-08-25T10:50:42;49302.41;;;-146.94;29.80
56737;BME280;42618;51.226;4.910;2022-08-25T11:04:19;49274.50;;;-146.94;29.08
56737;BME280;42618;51.226;4.910;2022-08-25T11:07:24;49274.50;;;-146.94;28.31
56737;BME280;42618;51.226;4.910;2022-08-25T11:09:56;49252.56;;;-146.94;28.84
56737;BME280;42618;51.226;4.910;2022-08-25T11:12:53;49270.50;;;-146.94;28.05
56737;BME280;42618;51.226;4.910;2022-08-25T11:15:34;49248.59;;;-146.94;28.28
56737;BME280;42618;51.226;4.910;2022-08-25T11:18:10;49244.59;;;-146.94;27.86
56737;BME280;42618;51.226;4.910;2022-08-25T11:23:27;49258.53;;;-146.94;27.61
56737;BME280;42618;51.226;4.910;2022-08-25T11:25:59;49254.56;;;-146.94;26.81
56737;BME280;42618;51.226;4.910;2022-08-25T11:30:58;49264.53;;;-146.94;27.18
56737;BME280;42618;51.226;4.910;2022-08-25T11:33:27;49248.59;;;-146.94;26.87
56737;BME280;42618;51.226;4.910;2022-08-25T11:39:03;49244.59;;;-146.94;27.34
56737;BME280;42618;51.226;4.910;2022-08-25T11:42:07;49284.47;;;-146.94;27.57
56737;BME280;42618;51.226;4.910;2022-08-25T11:52:40;49240.59;;;-146.94;27.53
56737;BME280;42618;51.226;4.910;2022-08-25T11:57:31;49238.63;;;-146.94;27.39
56737;BME280;42618;51.226;4.910;2022-08-25T12:00:04;49252.56;;;-146.94;27.11
56737;BME280;42618;51.226;4.910;2022-08-25T12:05:48;49260.53;;;-146.94;27.19
56737;BME280;42618;51.226;4.910;2022-08-25T12:08:04;49260.53;;;-146.94;26.97
56737;BME280;42618;51.226;4.910;2022-08-25T12:10:54;49260.53;;;-146.94;27.07
56737;BME280;42618;51.226;4.910;2022-08-25T12:13:44;49276.50;;;-146.94;26.84
56737;BME280;42618;51.226;4.910;2022-08-25T12:30:02;49256.56;;;-146.94;26.41
56737;BME280;42618;51.226;4.910;2022-08-25T12:38:53;49250.56;;;-146.94;25.84
56737;BME280;42618;51.226;4.910;2022-08-25T12:41:27;49252.56;;;-146.94;25.97
56737;BME280;42618;51.226;4.910;2022-08-25T12:44:43;49228.66;;;-146.94;25.77
56737;BME280;42618;51.226;4.910;2022-08-25T12:47:29;49246.59;;;-146.94;25.88
56737;BME280;42618;51.226;4.910;2022-08-25T12:53:05;49258.53;;;-146.94;25.48
56737;BME280;42618;51.226;4.910;2022-08-25T12:55:33;49256.56;;;-146.94;25.31
56737;BME280;42618;51.226;4.910;2022-08-25T12:58:01;49240.59;;;-146.94;25.31
56737;BME280;42618;51.226;4.910;2022-08-25T13:03:41;49244.59;;;-146.94;25.25
56737;BME280;42618;51.226;4.910;2022-08-25T13:06:35;49224.66;;;-146.94;25.06
56737;BME280;42618;51.226;4.910;2022-08-25T13:09:44;49238.63;;;-146.94;25.16
56737;BME280;42618;51.226;4.910;2022-08-25T13:12:26;49204.72;;;-146.94;24.86
56737;BME280;42618;51.226;4.910;2022-08-25T13:14:56;49218.69;;;-146.94;24.81
56737;BME280;42618;51.226;4.910;2022-08-25T13:17:33;49222.66;;;-146.94;24.48
56737;BME280;42618;51.226;4.910;2022-08-25T13:22:43;49202.72;;;-146.94;24.42
56737;BME280;42618;51.226;4.910;2022-08-25T13:25:21;49210.72;;;-146.94;24.40
56737;BME280;42618;51.226;4.910;2022-08-25T13:28:00;49186.78;;;-146.94;23.75
56737;BME280;42618;51.226;4.910;2022-08-25T13:30:34;49184.78;;;-146.94;23.94
56737;BME280;42618;51.226;4.910;2022-08-25T13:33:19;49186.78;;;-146.94;23.56
56737;BME280;42618;51.226;4.910;2022-08-25T13:35:49;49184.78;;;-146.94;23.93
56737;BME280;42618;51.226;4.910;2022-08-25T13:38:37;49192.78;;;-146.94;23.70
56737;BME280;42618;51.226;4.910;2022-08-25T13:41:04;49192.78;;;-146.94;23.82
56737;BME280;42618;51.226;4.910;2022-08-25T13:43:36;49184.78;;;-146.94;23.83
56737;BME280;42618;51.226;4.910;2022-08-25T13:46:04;49172.84;;;-146.94;23.54
56737;BME280;42618;51.226;4.910;2022-08-25T13:48:39;49200.75;;;-146.94;23.64
56737;BME280;42618;51.226;4.910;2022-08-25T13:51:20;49180.81;;;-146.94;24.00
56737;BME280;42618;51.226;4.910;2022-08-25T13:53:51;49192.78;;;-146.94;24.06
56737;BME280;42618;51.226;4.910;2022-08-25T13:56:25;49176.81;;;-146.94;23.83
56737;BME280;42618;51.226;4.910;2022-08-25T13:58:57;49164.88;;;-146.94;23.43
56737;BME280;42618;51.226;4.910;2022-08-25T14:01:33;49192.78;;;-146.94;23.83
56737;BME280;42618;51.226;4.910;2022-08-25T14:04:30;49180.81;;;-146.94;23.83
56737;BME280;42618;51.226;4.910;2022-08-25T14:12:42;49154.91;;;-146.94;22.31
56737;BME280;42618;51.226;4.910;2022-08-25T14:17:46;49128.97;;;-146.94;22.17
56737;BME280;42618;51.226;4.910;2022-08-25T14:20:17;49140.94;;;-146.94;22.53
56737;BME280;42618;51.226;4.910;2022-08-25T14:22:46;49136.97;;;-146.94;21.69
56737;BME280;42618;51.226;4.910;2022-08-25T14:25:13;49121.00;;;-146.94;21.96
56737;BME280;42618;51.226;4.910;2022-08-25T14:27:42;49128.97;;;-146.94;21.72
56737;BME280;42618;51.226;4.910;2022-08-25T14:30:33;49140.94;;;-146.94;21.34
56737;BME280;42618;51.226;4.910;2022-08-25T14:33:01;49121.00;;;-146.94;21.54
56737;BME280;42618;51.226;4.910;2022-08-25T14:35:29;49107.06;;;-146.94;21.64
56737;BME280;42618;51.226;4.910;2022-08-25T14:37:57;49119.00;;;-146.94;21.52
56737;BME280;42618;51.226;4.910;2022-08-25T14:40:23;49119.00;;;-146.94;21.45
56737;BME280;42618;51.226;4.910;2022-08-25T14:42:50;49109.06;;;-146.94;21.31
56737;BME280;42618;51.226;4.910;2022-08-25T14:45:17;49107.06;;;-146.94;21.01
56737;BME280;42618;51.226;4.910;2022-08-25T14:47:45;49208.72;;;-146.94;22.13
56737;BME280;42618;51.226;4.910;2022-08-25T14:50:16;49156.88;;;-146.94;22.75
56737;BME280;42618;51.226;4.910;2022-08-25T14:52:46;49170.84;;;-146.94;22.17
56737;BME280;42618;51.226;4.910;2022-08-25T14:55:18;49164.88;;;-146.94;22.64
56737;BME280;42618;51.226;4.910;2022-08-25T14:57:58;49206.72;;;-146.94;24.21
56737;BME280;42618;51.226;4.910;2022-08-25T15:00:25;49204.72;;;-146.94;24.35